sensor_id;sensor_type;location;lat;lon;timestamp;pressure;altitude;pressure_sealevel;temperature;humidity
56604;BME280;42486;47.478;19.036;2023-02-14T00:02:53;101962.41;;;1.98;100.00
56604;BME280;42486;47.478;19.036;2023-02-14T00:06:10;101959.09;;;1.89;100.00
56604;BME280;42486;47.478;19.036;2023-02-14T00:09:15;101960.09;;;1.77;100.00
56604;BME280;42486;47.478;19.036;2023-02-14T00:12:21;101959.31;;;1.69;100.00
56604;BME280;42486;47.478;19.036;2023-02-14T00:15:24;101956.78;;;1.64;100.00
56604;BME280;42486;47.478;19.036;2023-02-14T00:18:27;101963.75;;;1.56;100.00
56604;BME280;42486;47.478;19.036;2023-02-14T00:21:51;101964.59;;;1.57;100.00
56604;BME280;42486;47.478;19.036;2023-02-14T00:24:55;101959.50;;;1.50;100.00
56604;BME280;42486;47.478;19.036;2023-02-14T00:28:00;101954.28;;;1.57;100.00
56604;BME280;42486;47.478;19.036;2023-02-14T00:31:03;101951.59;;;1.67;100.00
56604;BME280;42486;47.478;19.036;2023-02-14T00:34:07;101953.19;;;1.77;100.00
56604;BME280;42486;47.478;19.036;2023-02-14T00:37:12;101956.69;;;1.72;100.00
56604;BME280;42486;47.478;19.036;2023-02-14T00:40:16;101948.06;;;1.77;100.00
56604;BME280;42486;47.478;19.036;2023-02-14T00:43:21;101944.66;;;1.74;100.00
56604;BME280;42486;47.478;19.036;2023-02-14T00:46:24;101951.56;;;1.72;100.00
56604;BME280;42486;47.478;19.036;2023-02-14T00:49:31;101950.44;;;1.94;100.00
56604;BME280;42486;47.478;19.036;2023-02-14T00:52:34;101958.84;;;2.10;100.00
56604;BME280;42486;47.478;19.036;2023-02-14T00:55:38;101969.03;;;2.19;100.00
56604;BME280;42486;47.478;19.036;2023-02-14T00:58:42;101966.38;;;2.26;100.00
56604;BME280;42486;47.478;19.036;2023-02-14T01:01:45;101963.00;;;2.22;100.00
56604;BME280;42486;47.478;19.036;2023-02-14T01:04:49;101963.03;;;2.17;100.00
56604;BME280;42486;47.478;19.036;2023-02-14T01:07:53;101958.69;;;2.23;100.00
56604;BME280;42486;47.478;19.036;2023-02-14T01:10:56;101954.41;;;2.22;100.00
56604;BME280;42486;47.478;19.036;2023-02-14T01:14:00;101944.94;;;2.20;100.00
56604;BME280;42486;47.478;19.036;2023-02-14T01:17:04;101944.12;;;2.18;100.00
56604;BME280;42486;47.478;19.036;2023-02-14T01:20:07;101938.87;;;2.25;100.00
56604;BME280;42486;47.478;19.036;2023-02-14T01:23:11;101943.13;;;2.29;100.00
56604;BME280;42486;47.478;19.036;2023-02-14T01:26:15;101933.62;;;2.32;100.00
56604;BME280;42486;47.478;19.036;2023-02-14T01:29:20;101928.41;;;2.37;100.00
56604;BME280;42486;47.478;19.036;2023-02-14T01:32:24;101929.94;;;2.50;100.00
56604;BME280;42486;47.478;19.036;2023-02-14T01:35:31;101924.75;;;2.53;100.00
56604;BME280;42486;47.478;19.036;2023-02-14T01:38:39;101919.75;;;2.42;100.00
56604;BME280;42486;47.478;19.036;2023-02-14T01:41:43;101918.16;;;2.31;100.00
56604;BME280;42486;47.478;19.036;2023-02-14T01:44:53;101919.25;;;2.16;100.00
56604;BME280;42486;47.478;19.036;2023-02-14T01:47:58;101920.25;;;2.04;100.00
56604;BME280;42486;47.478;19.036;2023-02-14T01:51:04;101923.78;;;1.95;100.00
56604;BME280;42486;47.478;19.036;2023-02-14T01:54:07;101925.53;;;1.95;100.00
56604;BME280;42486;47.478;19.036;2023-02-14T01:57:13;101926.28;;;2.02;100.00
56604;BME280;42486;47.478;19.036;2023-02-14T02:00:20;101927.12;;;2.04;100.00
56604;BME280;42486;47.478;19.036;2023-02-14T02:03:50;101928.72;;;2.12;100.00
56604;BME280;42486;47.478;19.036;2023-02-14T02:06:56;101919.94;;;2.27;100.00
56604;BME280;42486;47.478;19.036;2023-02-14T02:10:02;101920.69;;;2.34;100.00
56604;BME280;42486;47.478;19.036;2023-02-14T02:13:06;101925.00;;;2.35;100.00
56604;BME280;42486;47.478;19.036;2023-02-14T02:30:11;101897.63;;;2.25;100.00
56604;BME280;42486;47.478;19.036;2023-02-14T02:32:54;101895.16;;;2.15;100.00
56604;BME280;42486;47.478;19.036;2023-02-14T02:52:09;101895.22;;;2.14;100.00
56604;BME280;42486;47.478;19.036;2023-02-14T02:59:07;101895.56;;;1.86;100.00
56604;BME280;42486;47.478;19.036;2023-02-14T03:05:26;101885.53;;;1.63;100.00
56604;BME280;42486;47.478;19.036;2023-02-14T03:08:31;101894.28;;;1.48;100.00
56604;BME280;42486;47.478;19.036;2023-02-14T03:11:35;101883.25;;;1.37;100.00
56604;BME280;42486;47.478;19.036;2023-02-14T03:27:31;101883.53;;;1.08;100.00
56604;BME280;42486;47.478;19.036;2023-02-14T03:40:08;101882.00;;;0.88;100.00
56604;BME280;42486;47.478;19.036;2023-02-14T03:43:17;101878.59;;;0.88;100.00
56604;BME280;42486;47.478;19.036;2023-02-14T03:46:37;101882.88;;;0.87;100.00
56604;BME280;42486;47.478;19.036;2023-02-14T03:49:43;101883.84;;;0.74;100.00
56604;BME280;42486;47.478;19.036;2023-02-14T03:52:48;101885.59;;;0.72;100.00
56604;BME280;42486;47.478;19.036;2023-02-14T03:55:57;101883.84;;;0.76;100.00
56604;BME280;42486;47.478;19.036;2023-02-14T03:59:08;101887.25;;;0.78;100.00
56604;BME280;42486;47.478;19.036;2023-02-14T04:02:20;101888.88;;;0.88;100.00
56604;BME280;42486;47.478;19.036;2023-02-14T04:05:31;101884.63;;;0.82;100.00
56604;BME280;42486;47.478;19.036;2023-02-14T04:08:34;101887.19;;;0.82;100.00
56604;BME280;42486;47.478;19.036;2023-02-14T04:11:39;101879.47;;;0.85;100.00
56604;BME280;42486;47.478;19.036;2023-02-14T04:14:44;101886.25;;;0.93;100.00
56604;BME280;42486;47.478;19.036;2023-02-14T04:17:48;101884.50;;;0.98;100.00
56604;BME280;42486;47.478;19.036;2023-02-14T04:21:10;101877.63;;;1.00;100.00
56604;BME280;42486;47.478;19.036;2023-02-14T04:24:14;101882.81;;;0.92;100.00
56604;BME280;42486;47.478;19.036;2023-02-14T04:27:17;101878.56;;;0.90;100.00
56604;BME280;42486;47.478;19.036;2023-02-14T04:30:20;101882.91;;;0.86;100.00
56604;BME280;42486;47.478;19.036;2023-02-14T04:33:25;101880.34;;;0.81;100.00
56604;BME280;42486;47.478;19.036;2023-02-14T04:36:28;101885.44;;;0.87;100.00
56604;BME280;42486;47.478;19.036;2023-02-14T04:39:32;101885.44;;;0.91;100.00
56604;BME280;42486;47.478;19.036;2023-02-14T04:42:37;101886.25;;;0.94;100.00
56604;BME280;42486;47.478;19.036;2023-02-14T04:45:40;101885.34;;;0.98;100.00
56604;BME280;42486;47.478;19.036;2023-02-14T04:48:43;101899.03;;;1.06;100.00
56604;BME280;42486;47.478;19.036;2023-02-14T04:51:46;101899.03;;;1.05;100.00
56604;BME280;42486;47.478;19.036;2023-02-14T04:54:49;101889.59;;;1.04;100.00
56604;BME280;42486;47.478;19.036;2023-02-14T04:57:53;101885.31;;;1.04;100.00
56604;BME280;42486;47.478;19.036;2023-02-14T05:00:57;101887.13;;;0.92;100.00
56604;BME280;42486;47.478;19.036;2023-02-14T05:04:01;101885.44;;;0.91;100.00
56604;BME280;42486;47.478;19.036;2023-02-14T05:07:04;101882.88;;;0.89;100.00
56604;BME280;42486;47.478;19.036;2023-02-14T05:10:08;101880.31;;;0.86;100.00
56604;BME280;42486;47.478;19.036;2023-02-14T05:13:11;101892.31;;;0.87;100.00
56604;BME280;42486;47.478;19.036;2023-02-14T05:16:14;101898.25;;;0.92;100.00
56604;BME280;42486;47.478;19.036;2023-02-14T05:19:17;101884.59;;;0.88;100.00
56604;BME280;42486;47.478;19.036;2023-02-14T05:22:20;101884.63;;;0.85;100.00
56604;BME280;42486;47.478;19.036;2023-02-14T05:25:24;101888.84;;;0.91;100.00
56604;BME280;42486;47.478;19.036;2023-02-14T05:28:27;101889.69;;;0.93;100.00
56604;BME280;42486;47.478;19.036;2023-02-14T05:31:30;101888.88;;;0.86;100.00
56604;BME280;42486;47.478;19.036;2023-02-14T05:34:37;101888.03;;;0.84;100.00
56604;BME280;42486;47.478;19.036;2023-02-14T05:37:40;101886.38;;;0.79;100.00
56604;BME280;42486;47.478;19.036;2023-02-14T05:40:43;101886.44;;;0.73;100.00
56604;BME280;42486;47.478;19.036;2023-02-14T05:43:48;101889.12;;;0.59;100.00
56604;BME280;42486;47.478;19.036;2023-02-14T05:46:53;101888.19;;;0.66;100.00
56604;BME280;42486;47.478;19.036;2023-02-14T05:49:56;101896.78;;;0.65;100.00
56604;BME280;42486;47.478;19.036;2023-02-14T05:53:00;101892.50;;;0.64;100.00
56604;BME280;42486;47.478;19.036;2023-02-14T05:56:06;101897.72;;;0.55;100.00
56604;BME280;42486;47.478;19.036;2023-02-14T05:59:10;101895.22;;;0.44;100.00
56604;BME280;42486;47.478;19.036;2023-02-14T06:02:13;101897.78;;;0.42;100.00
56604;BME280;42486;47.478;19.036;2023-02-14T06:05:18;101904.69;;;0.37;100.00
56604;BME280;42486;47.478;19.036;2023-02-14T06:08:25;101905.53;;;0.36;100.00
56604;BME280;42486;47.478;19.036;2023-02-14T06:11:31;101907.25;;;0.36;100.00
56604;BME280;42486;47.478;19.036;2023-02-14T06:14:40;101905.53;;;0.38;100.00
56604;BME280;42486;47.478;19.036;2023-02-14T06:17:51;101908.09;;;0.39;100.00
56604;BME280;42486;47.478;19.036;2023-02-14T06:20:55;101902.97;;;0.38;100.00
56604;BME280;42486;47.478;19.036;2023-02-14T06:24:00;101913.28;;;0.35;100.00
56604;BME280;42486;47.478;19.036;2023-02-14T06:27:04;101920.94;;;0.41;100.00
56604;BME280;42486;47.478;19.036;2023-02-14T06:30:08;101921.78;;;0.46;100.00
56604;BME280;42486;47.478;19.036;2023-02-14T06:33:13;101928.63;;;0.46;100.00
56604;BME280;42486;47.478;19.036;2023-02-14T06:36:22;101933.78;;;0.44;100.00
56604;BME280;42486;47.478;19.036;2023-02-14T06:39:30;101939.72;;;0.52;100.00
56604;BME280;42486;47.478;19.036;2023-02-14T06:42:35;101943.91;;;0.67;100.00
56604;BME280;42486;47.478;19.036;2023-02-14T06:45:41;101954.94;;;0.81;100.00
56604;BME280;42486;47.478;19.036;2023-02-14T06:48:50;101952.25;;;1.01;100.00
56604;BME280;42486;47.478;19.036;2023-02-14T06:51:55;101956.28;;;1.27;100.00
56604;BME280;42486;47.478;19.036;2023-02-14T06:54:59;101956.97;;;1.46;100.00
56604;BME280;42486;47.478;19.036;2023-02-14T06:58:10;101967.09;;;1.66;100.00
56604;BME280;42486;47.478;19.036;2023-02-14T07:01:14;101969.47;;;1.84;100.00
56604;BME280;42486;47.478;19.036;2023-02-14T07:04:19;101962.41;;;1.98;100.00
56604;BME280;42486;47.478;19.036;2023-02-14T07:07:24;101955.44;;;2.07;100.00
56604;BME280;42486;47.478;19.036;2023-02-14T07:10:31;101962.13;;;2.22;100.00
56604;BME280;42486;47.478;19.036;2023-02-14T07:13:38;101974.75;;;2.41;100.00
56604;BME280;42486;47.478;19.036;2023-02-14T07:16:43;101976.13;;;2.65;100.00
56604;BME280;42486;47.478;19.036;2023-02-14T07:19:49;101978.22;;;2.98;100.00
56604;BME280;42486;47.478;19.036;2023-02-14T07:22:53;101973.66;;;3.17;100.00
56604;BME280;42486;47.478;19.036;2023-02-14T07:25:58;101980.31;;;3.30;100.00
56604;BME280;42486;47.478;19.036;2023-02-14T07:29:01;101975.22;;;3.25;100.00
56604;BME280;42486;47.478;19.036;2023-02-14T07:32:05;101984.34;;;3.46;100.00
56604;BME280;42486;47.478;19.036;2023-02-14T07:35:10;101988.78;;;3.37;100.00
56604;BME280;42486;47.478;19.036;2023-02-14T07:38:16;101987.69;;;3.51;100.00
56604;BME280;42486;47.478;19.036;2023-02-14T07:41:19;101991.78;;;3.63;100.00
56604;BME280;42486;47.478;19.036;2023-02-14T07:44:33;102000.06;;;3.81;100.00
56604;BME280;42486;47.478;19.036;2023-02-14T07:47:38;101997.22;;;3.94;100.00
56604;BME280;42486;47.478;19.036;2023-02-14T07:50:42;102005.59;;;4.07;100.00
56604;BME280;42486;47.478;19.036;2023-02-14T07:53:47;102002.38;;;3.94;100.00
56604;BME280;42486;47.478;19.036;2023-02-14T07:56:51;102004.41;;;4.24;100.00
56604;BME280;42486;47.478;19.036;2023-02-14T07:59:59;102010.19;;;4.36;100.00
56604;BME280;42486;47.478;19.036;2023-02-14T08:03:06;102008.38;;;4.40;100.00
56604;BME280;42486;47.478;19.036;2023-02-14T08:06:10;102013.09;;;4.60;100.00
56604;BME280;42486;47.478;19.036;2023-02-14T08:09:16;102011.00;;;4.77;98.28
56604;BME280;42486;47.478;19.036;2023-02-14T08:12:27;102000.25;;;4.94;96.52
56604;BME280;42486;47.478;19.036;2023-02-14T08:15:50;102007.66;;;5.10;97.73
56604;BME280;42486;47.478;19.036;2023-02-14T08:19:10;102003.66;;;5.32;97.98
56604;BME280;42486;47.478;19.036;2023-02-14T08:22:15;102004.91;;;5.50;95.93
56604;BME280;42486;47.478;19.036;2023-02-14T08:25:19;102000.75;;;5.44;92.20
56604;BME280;42486;47.478;19.036;2023-02-14T08:28:23;102003.31;;;5.46;94.05
56604;BME280;42486;47.478;19.036;2023-02-14T08:31:33;102006.50;;;5.56;93.32
56604;BME280;42486;47.478;19.036;2023-02-14T08:34:37;102006.47;;;5.57;90.85
56604;BME280;42486;47.478;19.036;2023-02-14T08:37:40;102002.28;;;5.51;93.00
56604;BME280;42486;47.478;19.036;2023-02-14T08:40:43;102003.34;;;5.44;92.67
56604;BME280;42486;47.478;19.036;2023-02-14T08:43:47;102001.84;;;5.36;92.46
56604;BME280;42486;47.478;19.036;2023-02-14T08:46:51;102008.31;;;5.54;93.07
56604;BME280;42486;47.478;19.036;2023-02-14T08:49:54;102004.88;;;5.84;89.80
56604;BME280;42486;47.478;19.036;2023-02-14T08:52:58;102009.81;;;5.95;91.65
56604;BME280;42486;47.478;19.036;2023-02-14T08:56:03;102005.16;;;6.06;88.40
56604;BME280;42486;47.478;19.036;2023-02-14T08:59:13;102016.66;;;5.98;88.41
56604;BME280;42486;47.478;19.036;2023-02-14T09:02:18;102014.25;;;6.23;87.25
56604;BME280;42486;47.478;19.036;2023-02-14T09:05:21;102012.31;;;5.98;85.99
56604;BME280;42486;47.478;19.036;2023-02-14T09:08:26;102013.75;;;6.08;86.61
56604;BME280;42486;47.478;19.036;2023-02-14T09:11:31;102009.69;;;6.31;86.34
56604;BME280;42486;47.478;19.036;2023-02-14T09:14:38;102012.09;;;6.37;84.35
56604;BME280;42486;47.478;19.036;2023-02-14T09:17:59;102010.06;;;6.47;85.21
56604;BME280;42486;47.478;19.036;2023-02-14T09:21:05;102004.72;;;6.51;83.50
56604;BME280;42486;47.478;19.036;2023-02-14T09:24:09;102005.47;;;6.27;83.66
56604;BME280;42486;47.478;19.036;2023-02-14T09:27:12;102013.22;;;6.56;83.09
56604;BME280;42486;47.478;19.036;2023-02-14T09:30:15;102014.88;;;6.59;81.87
56604;BME280;42486;47.478;19.036;2023-02-14T09:33:19;102015.38;;;6.72;80.64
56604;BME280;42486;47.478;19.036;2023-02-14T09:36:24;102011.88;;;7.01;81.06
56604;BME280;42486;47.478;19.036;2023-02-14T09:39:27;102016.31;;;6.97;79.55
56604;BME280;42486;47.478;19.036;2023-02-14T09:42:58;102013.75;;;7.22;80.90
56604;BME280;42486;47.478;19.036;2023-02-14T09:46:03;102025.97;;;7.20;77.90
56604;BME280;42486;47.478;19.036;2023-02-14T09:49:15;102024.31;;;7.18;76.91
56604;BME280;42486;47.478;19.036;2023-02-14T09:52:21;102028.50;;;7.48;76.27
56604;BME280;42486;47.478;19.036;2023-02-14T09:55:32;102021.66;;;7.46;75.13
56604;BME280;42486;47.478;19.036;2023-02-14T10:01:50;102024.53;;;7.63;73.25
56604;BME280;42486;47.478;19.036;2023-02-14T10:05:02;102027.66;;;7.21;74.20
56604;BME280;42486;47.478;19.036;2023-02-14T10:08:23;102021.28;;;6.77;76.67
56604;BME280;42486;47.478;19.036;2023-02-14T10:11:32;102018.56;;;7.08;79.81
56604;BME280;42486;47.478;19.036;2023-02-14T10:14:37;102025.00;;;7.49;74.37
56604;BME280;42486;47.478;19.036;2023-02-14T10:17:47;102017.25;;;7.48;74.53
56604;BME280;42486;47.478;19.036;2023-02-14T10:20:54;102010.63;;;7.64;73.41
56604;BME280;42486;47.478;19.036;2023-02-14T10:24:22;102013.16;;;7.66;71.75
56604;BME280;42486;47.478;19.036;2023-02-14T10:30:35;102011.62;;;7.60;73.25
56604;BME280;42486;47.478;19.036;2023-02-14T10:33:41;102015.12;;;7.84;71.63
56604;BME280;42486;47.478;19.036;2023-02-14T10:36:51;102008.91;;;7.88;71.85
56604;BME280;42486;47.478;19.036;2023-02-14T10:40:21;102002.63;;;7.94;71.16
56604;BME280;42486;47.478;19.036;2023-02-14T10:43:50;101997.41;;;7.96;70.37
56604;BME280;42486;47.478;19.036;2023-02-14T10:47:10;101998.06;;;8.24;68.83
56604;BME280;42486;47.478;19.036;2023-02-14T10:54:17;101990.75;;;8.34;69.83
56604;BME280;42486;47.478;19.036;2023-02-14T10:57:30;101993.06;;;8.65;69.31
56604;BME280;42486;47.478;19.036;2023-02-14T11:00:39;101994.03;;;8.63;66.77
56604;BME280;42486;47.478;19.036;2023-02-14T11:03:51;101994.22;;;8.80;65.85
56604;BME280;42486;47.478;19.036;2023-02-14T11:06:57;101982.16;;;8.77;64.65
56604;BME280;42486;47.478;19.036;2023-02-14T11:10:09;101971.59;;;8.58;65.49
56604;BME280;42486;47.478;19.036;2023-02-14T11:16:35;101976.41;;;8.69;64.71
56604;BME280;42486;47.478;19.036;2023-02-14T11:19:40;101976.19;;;8.96;67.29
56604;BME280;42486;47.478;19.036;2023-02-14T11:22:45;101975.87;;;9.03;64.70
56604;BME280;42486;47.478;19.036;2023-02-14T11:25:50;101982.56;;;9.11;63.20
56604;BME280;42486;47.478;19.036;2023-02-14T11:28:55;101979.59;;;8.98;63.45
56604;BME280;42486;47.478;19.036;2023-02-14T11:32:11;101979.19;;;8.87;64.56
56604;BME280;42486;47.478;19.036;2023-02-14T11:35:19;101974.03;;;8.63;64.55
56604;BME280;42486;47.478;19.036;2023-02-14T11:38:34;101979.00;;;8.91;64.33
56604;BME280;42486;47.478;19.036;2023-02-14T11:41:47;101976.47;;;8.90;63.90
56604;BME280;42486;47.478;19.036;2023-02-14T11:44:54;101969.91;;;8.57;64.95
56604;BME280;42486;47.478;19.036;2023-02-14T11:51:18;101964.69;;;8.79;64.98
56604;BME280;42486;47.478;19.036;2023-02-14T11:54:32;101965.19;;;8.89;64.03
56604;BME280;42486;47.478;19.036;2023-02-14T11:57:38;101966.47;;;9.21;62.91
56604;BME280;42486;47.478;19.036;2023-02-14T12:00:50;101964.38;;;9.30;62.61
56604;BME280;42486;47.478;19.036;2023-02-14T12:03:54;101969.16;;;8.98;62.44
56604;BME280;42486;47.478;19.036;2023-02-14T12:07:13;101967.75;;;9.11;63.98
56604;BME280;42486;47.478;19.036;2023-02-14T12:10:18;101967.12;;;9.26;59.50
56604;BME280;42486;47.478;19.036;2023-02-14T12:13:23;101973.06;;;9.10;60.39
56604;BME280;42486;47.478;19.036;2023-02-14T12:16:31;101965.81;;;9.16;60.68
56604;BME280;42486;47.478;19.036;2023-02-14T12:22:54;101964.31;;;9.11;61.41
56604;BME280;42486;47.478;19.036;2023-02-14T12:26:01;101954.72;;;8.69;62.99
56604;BME280;42486;47.478;19.036;2023-02-14T12:29:08;101952.94;;;8.69;62.47
56604;BME280;42486;47.478;19.036;2023-02-14T12:32:27;101946.00;;;8.70;62.84
56604;BME280;42486;47.478;19.036;2023-02-14T12:39:24;101941.38;;;8.76;63.87
56604;BME280;42486;47.478;19.036;2023-02-14T12:42:42;101935.06;;;8.82;62.55
56604;BME280;42486;47.478;19.036;2023-02-14T12:52:43;101922.69;;;9.48;60.00
56604;BME280;42486;47.478;19.036;2023-02-14T12:59:24;101919.06;;;9.12;61.15
56604;BME280;42486;47.478;19.036;2023-02-14T13:09:00;101916.97;;;9.20;60.92
56604;BME280;42486;47.478;19.036;2023-02-14T13:21:40;101907.97;;;9.47;61.35
56604;BME280;42486;47.478;19.036;2023-02-14T13:24:46;101900.63;;;9.37;60.40
56604;BME280;42486;47.478;19.036;2023-02-14T13:27:55;101906.69;;;9.37;60.82
56604;BME280;42486;47.478;19.036;2023-02-14T13:31:04;101903.66;;;9.46;59.98
56604;BME280;42486;47.478;19.036;2023-02-14T13:34:29;101903.00;;;9.41;60.87
56604;BME280;42486;47.478;19.036;2023-02-14T13:37:37;101911.22;;;9.53;60.51
56604;BME280;42486;47.478;19.036;2023-02-14T13:40:41;101906.69;;;9.37;59.91
56604;BME280;42486;47.478;19.036;2023-02-14T13:43:49;101906.53;;;9.20;59.42
56604;BME280;42486;47.478;19.036;2023-02-14T13:46:53;101898.16;;;9.13;60.13
56604;BME280;42486;47.478;19.036;2023-02-14T13:50:00;101898.94;;;9.15;60.46
56604;BME280;42486;47.478;19.036;2023-02-14T13:53:09;101894.28;;;9.22;61.62
56604;BME280;42486;47.478;19.036;2023-02-14T13:56:31;101895.91;;;9.24;61.03
56604;BME280;42486;47.478;19.036;2023-02-14T13:59:35;101896.44;;;9.33;60.39
56604;BME280;42486;47.478;19.036;2023-02-14T14:02:49;101895.34;;;9.18;60.37
56604;BME280;42486;47.478;19.036;2023-02-14T14:09:12;101893.53;;;8.99;62.44
56604;BME280;42486;47.478;19.036;2023-02-14T14:12:36;101897.53;;;9.07;63.16
56604;BME280;42486;47.478;19.036;2023-02-14T14:15:52;101898.25;;;8.90;61.99
56604;BME280;42486;47.478;19.036;2023-02-14T14:22:24;101897.56;;;8.86;65.17
56604;BME280;42486;47.478;19.036;2023-02-14T14:25:38;101904.91;;;8.76;64.53
56604;BME280;42486;47.478;19.036;2023-02-14T14:28:48;101901.50;;;8.74;65.13
56604;BME280;42486;47.478;19.036;2023-02-14T14:31:51;101893.88;;;8.70;65.16
56604;BME280;42486;47.478;19.036;2023-02-14T14:35:00;101901.75;;;8.68;65.16
56604;BME280;42486;47.478;19.036;2023-02-14T14:38:11;101898.88;;;8.74;64.99
56604;BME280;42486;47.478;19.036;2023-02-14T14:41:25;101892.56;;;8.59;64.33
56604;BME280;42486;47.478;19.036;2023-02-14T14:44:34;101893.31;;;8.62;65.12
56604;BME280;42486;47.478;19.036;2023-02-14T14:47:41;101890.00;;;8.58;65.34
56604;BME280;42486;47.478;19.036;2023-02-14T14:50:46;101884.87;;;8.56;65.47
56604;BME280;42486;47.478;19.036;2023-02-14T14:57:06;101882.03;;;8.41;66.86
56604;BME280;42486;47.478;19.036;2023-02-14T15:03:24;101891.37;;;8.23;66.23
56604;BME280;42486;47.478;19.036;2023-02-14T15:06:31;101881.31;;;8.13;66.55
56604;BME280;42486;47.478;19.036;2023-02-14T15:09:38;101895.00;;;8.19;67.63
56604;BME280;42486;47.478;19.036;2023-02-14T15:12:44;101897.06;;;8.10;67.50
56604;BME280;42486;47.478;19.036;2023-02-14T15:16:23;101885.41;;;7.97;68.42
56604;BME280;42486;47.478;19.036;2023-02-14T15:19:28;101889.78;;;7.97;68.19
56604;BME280;42486;47.478;19.036;2023-02-14T15:25:38;101881.37;;;7.66;69.98
56604;BME280;42486;47.478;19.036;2023-02-14T15:28:52;101888.97;;;7.71;70.67
56604;BME280;42486;47.478;19.036;2023-02-14T15:31:56;101891.03;;;7.63;70.65
56604;BME280;42486;47.478;19.036;2023-02-14T15:35:05;101895.09;;;7.46;72.19
56604;BME280;42486;47.478;19.036;2023-02-14T15:38:10;101895.03;;;7.48;70.15
56604;BME280;42486;47.478;19.036;2023-02-14T15:41:18;101891.88;;;7.40;71.71
56604;BME280;42486;47.478;19.036;2023-02-14T15:44:22;101880.56;;;7.16;71.73
56604;BME280;42486;47.478;19.036;2023-02-14T15:47:28;101894.81;;;7.04;72.26
56604;BME280;42486;47.478;19.036;2023-02-14T15:50:31;101890.91;;;6.92;73.68
56604;BME280;42486;47.478;19.036;2023-02-14T15:53:38;101896.59;;;6.77;74.06
56604;BME280;42486;47.478;19.036;2023-02-14T15:56:42;101892.84;;;6.59;74.74
56604;BME280;42486;47.478;19.036;2023-02-14T15:59:46;101888.06;;;6.47;75.88
56604;BME280;42486;47.478;19.036;2023-02-14T16:02:53;101888.28;;;6.39;75.98
56604;BME280;42486;47.478;19.036;2023-02-14T16:05:58;101886.03;;;6.28;76.38
56604;BME280;42486;47.478;19.036;2023-02-14T16:09:03;101895.59;;;6.26;77.19
56604;BME280;42486;47.478;19.036;2023-02-14T16:15:37;101904.94;;;6.04;78.30
56604;BME280;42486;47.478;19.036;2023-02-14T16:18:47;101904.41;;;5.91;79.26
56604;BME280;42486;47.478;19.036;2023-02-14T16:21:54;101897.97;;;5.74;81.20
56604;BME280;42486;47.478;19.036;2023-02-14T16:24:57;101913.97;;;5.59;81.81
56604;BME280;42486;47.478;19.036;2023-02-14T16:28:01;101915.94;;;5.49;81.84
56604;BME280;42486;47.478;19.036;2023-02-14T16:31:05;101918.91;;;5.36;82.61
56604;BME280;42486;47.478;19.036;2023-02-14T16:34:11;101916.69;;;5.22;83.79
56604;BME280;42486;47.478;19.036;2023-02-14T16:37:21;101924.75;;;5.11;84.17
56604;BME280;42486;47.478;19.036;2023-02-14T16:40:27;101915.44;;;5.02;84.98
56604;BME280;42486;47.478;19.036;2023-02-14T16:43:36;101923.94;;;5.07;84.30
56604;BME280;42486;47.478;19.036;2023-02-14T16:46:46;101915.69;;;4.93;85.36
56604;BME280;42486;47.478;19.036;2023-02-14T16:49:52;101922.88;;;4.80;86.46
56604;BME280;42486;47.478;19.036;2023-02-14T16:52:55;101923.88;;;4.76;87.54
56604;BME280;42486;47.478;19.036;2023-02-14T16:56:01;101916.22;;;4.70;87.02
56604;BME280;42486;47.478;19.036;2023-02-14T16:59:04;101919.91;;;4.60;87.36
56604;BME280;42486;47.478;19.036;2023-02-14T17:02:08;101922.63;;;4.55;88.76
56604;BME280;42486;47.478;19.036;2023-02-14T17:05:15;101927.12;;;4.47;88.75
56604;BME280;42486;47.478;19.036;2023-02-14T17:08:19;101926.38;;;4.42;89.37
56604;BME280;42486;47.478;19.036;2023-02-14T17:11:24;101932.75;;;4.27;89.08
56604;BME280;42486;47.478;19.036;2023-02-14T17:14:31;101938.97;;;4.18;90.11
56604;BME280;42486;47.478;19.036;2023-02-14T17:17:37;101934.87;;;4.08;91.15
56604;BME280;42486;47.478;19.036;2023-02-14T17:20:42;101942.03;;;3.95;92.34
56604;BME280;42486;47.478;19.036;2023-02-14T17:23:47;101943.06;;;3.87;92.73
56604;BME280;42486;47.478;19.036;2023-02-14T17:26:50;101933.66;;;3.83;94.66
56604;BME280;42486;47.478;19.036;2023-02-14T17:29:53;101942.25;;;3.85;95.26
56604;BME280;42486;47.478;19.036;2023-02-14T17:32:56;101942.47;;;3.74;95.78
56604;BME280;42486;47.478;19.036;2023-02-14T17:36:05;101944.34;;;3.64;96.59
56604;BME280;42486;47.478;19.036;2023-02-14T17:39:11;101945.31;;;3.59;96.69
56604;BME280;42486;47.478;19.036;2023-02-14T17:42:13;101940.28;;;3.54;96.40
56604;BME280;42486;47.478;19.036;2023-02-14T17:45:16;101947.19;;;3.52;97.50
56604;BME280;42486;47.478;19.036;2023-02-14T17:48:19;101938.66;;;3.48;97.21
56604;BME280;42486;47.478;19.036;2023-02-14T17:51:22;101938.81;;;3.39;98.16
56604;BME280;42486;47.478;19.036;2023-02-14T17:54:25;101943.84;;;3.47;98.16
56604;BME280;42486;47.478;19.036;2023-02-14T17:57:27;101940.16;;;3.60;97.72
56604;BME280;42486;47.478;19.036;2023-02-14T18:00:30;101936.28;;;3.81;96.33
56604;BME280;42486;47.478;19.036;2023-02-14T18:03:36;101935.16;;;3.94;96.16
56604;BME280;42486;47.478;19.036;2023-02-14T18:06:40;101937.78;;;3.93;95.40
56604;BME280;42486;47.478;19.036;2023-02-14T18:09:45;101927.41;;;3.94;95.15
56604;BME280;42486;47.478;19.036;2023-02-14T18:12:48;101929.84;;;4.02;94.26
56604;BME280;42486;47.478;19.036;2023-02-14T18:15:51;101929.53;;;4.16;92.94
56604;BME280;42486;47.478;19.036;2023-02-14T18:18:55;101927.88;;;4.13;92.95
56604;BME280;42486;47.478;19.036;2023-02-14T18:21:58;101932.31;;;4.07;92.98